sensor_id;sensor_type;location;lat;lon;timestamp;P1;durP1;ratioP1;P2;durP2;ratioP2
22780;SDS011;11557;50.884;4.322;2022-11-15T00:00:27;29.98;;;24.05;;
22780;SDS011;11557;50.884;4.322;2022-11-15T00:02:53;29.27;;;23.70;;
22780;SDS011;11557;50.884;4.322;2022-11-15T00:05:19;36.22;;;25.17;;
22780;SDS011;11557;50.884;4.322;2022-11-15T00:07:44;31.83;;;24.08;;
22780;SDS011;11557;50.884;4.322;2022-11-15T00:10:11;34.42;;;24.52;;
22780;SDS011;11557;50.884;4.322;2022-11-15T00:12:37;39.97;;;25.60;;
22780;SDS011;11557;50.884;4.322;2022-11-15T00:15:02;35.70;;;25.17;;
22780;SDS011;11557;50.884;4.322;2022-11-15T00:17:28;33.97;;;25.85;;
22780;SDS011;11557;50.884;4.322;2022-11-15T00:19:54;29.60;;;25.17;;
22780;SDS011;11557;50.884;4.322;2022-11-15T00:22:20;32.53;;;25.48;;
22780;SDS011;11557;50.884;4.322;2022-11-15T00:24:46;33.10;;;25.13;;
22780;SDS011;11557;50.884;4.322;2022-11-15T00:27:12;36.08;;;26.23;;
22780;SDS011;11557;50.884;4.322;2022-11-15T00:29:37;33.50;;;26.55;;
22780;SDS011;11557;50.884;4.322;2022-11-15T00:32:08;33.85;;;25.98;;
22780;SDS011;11557;50.884;4.322;2022-11-15T00:34:34;34.45;;;24.90;;
22780;SDS011;11557;50.884;4.322;2022-11-15T00:37:00;33.35;;;25.35;;
22780;SDS011;11557;50.884;4.322;2022-11-15T00:39:25;32.15;;;25.02;;
22780;SDS011;11557;50.884;4.322;2022-11-15T00:41:51;34.92;;;26.45;;
22780;SDS011;11557;50.884;4.322;2022-11-15T00:44:17;38.08;;;26.52;;
22780;SDS011;11557;50.884;4.322;2022-11-15T00:46:42;32.15;;;25.05;;
22780;SDS011;11557;50.884;4.322;2022-11-15T00:49:08;35.90;;;25.30;;
22780;SDS011;11557;50.884;4.322;2022-11-15T00:51:33;31.85;;;25.25;;
22780;SDS011;11557;50.884;4.322;2022-11-15T00:53:59;34.53;;;26.17;;
22780;SDS011;11557;50.884;4.322;2022-11-15T00:56:25;33.40;;;26.52;;
22780;SDS011;11557;50.884;4.322;2022-11-15T00:58:50;35.95;;;25.50;;
22780;SDS011;11557;50.884;4.322;2022-11-15T01:01:17;34.00;;;25.33;;
22780;SDS011;11557;50.884;4.322;2022-11-15T01:03:42;34.95;;;26.42;;
22780;SDS011;11557;50.884;4.322;2022-11-15T01:06:08;34.85;;;25.70;;
22780;SDS011;11557;50.884;4.322;2022-11-15T01:08:34;37.47;;;26.27;;
22780;SDS011;11557;50.884;4.322;2022-11-15T01:11:04;36.67;;;26.30;;
22780;SDS011;11557;50.884;4.322;2022-11-15T01:13:32;36.35;;;26.77;;
22780;SDS011;11557;50.884;4.322;2022-11-15T01:16:05;38.45;;;27.30;;
22780;SDS011;11557;50.884;4.322;2022-11-15T01:18:36;40.17;;;27.67;;
22780;SDS011;11557;50.884;4.322;2022-11-15T01:21:09;38.33;;;27.42;;
22780;SDS011;11557;50.884;4.322;2022-11-15T01:23:36;37.00;;;27.23;;
22780;SDS011;11557;50.884;4.322;2022-11-15T01:26:03;38.75;;;28.58;;
22780;SDS011;11557;50.884;4.322;2022-11-15T01:28:31;37.08;;;26.88;;
22780;SDS011;11557;50.884;4.322;2022-11-15T01:30:58;36.13;;;27.88;;
22780;SDS011;11557;50.884;4.322;2022-11-15T01:33:25;36.55;;;27.27;;
22780;SDS011;11557;50.884;4.322;2022-11-15T01:35:51;35.47;;;27.00;;
22780;SDS011;11557;50.884;4.322;2022-11-15T01:38:17;33.50;;;27.67;;
22780;SDS011;11557;50.884;4.322;2022-11-15T01:40:42;37.35;;;28.23;;
22780;SDS011;11557;50.884;4.322;2022-11-15T01:43:27;38.88;;;27.65;;
22780;SDS011;11557;50.884;4.322;2022-11-15T01:46:06;41.65;;;27.90;;
22780;SDS011;11557;50.884;4.322;2022-11-15T01:48:46;36.42;;;26.52;;
22780;SDS011;11557;50.884;4.322;2022-11-15T01:51:15;40.58;;;27.58;;
22780;SDS011;11557;50.884;4.322;2022-11-15T01:53:45;40.00;;;27.27;;
22780;SDS011;11557;50.884;4.322;2022-11-15T01:56:16;38.88;;;25.77;;
22780;SDS011;11557;50.884;4.322;2022-11-15T01:58:44;38.72;;;26.13;;
22780;SDS011;11557;50.884;4.322;2022-11-15T02:01:11;40.25;;;25.33;;
22780;SDS011;11557;50.884;4.322;2022-11-15T02:03:59;35.53;;;26.30;;
22780;SDS011;11557;50.884;4.322;2022-11-15T02:06:26;31.50;;;23.58;;
22780;SDS011;11557;50.884;4.322;2022-11-15T02:08:51;32.05;;;24.45;;
22780;SDS011;11557;50.884;4.322;2022-11-15T02:11:18;33.63;;;23.80;;
22780;SDS011;11557;50.884;4.322;2022-11-15T02:13:43;33.03;;;24.55;;
22780;SDS011;11557;50.884;4.322;2022-11-15T02:16:13;31.33;;;24.77;;
22780;SDS011;11557;50.884;4.322;2022-11-15T02:18:55;32.15;;;24.70;;
22780;SDS011;11557;50.884;4.322;2022-11-15T02:28:10;34.42;;;23.95;;
22780;SDS011;11557;50.884;4.322;2022-11-15T02:30:52;33.42;;;23.67;;
22780;SDS011;11557;50.884;4.322;2022-11-15T02:44:30;33.22;;;24.00;;
22780;SDS011;11557;50.884;4.322;2022-11-15T02:47:07;38.75;;;24.65;;
22780;SDS011;11557;50.884;4.322;2022-11-15T02:49:40;36.13;;;24.92;;
22780;SDS011;11557;50.884;4.322;2022-11-15T02:52:16;35.00;;;24.13;;
22780;SDS011;11557;50.884;4.322;2022-11-15T02:54:42;34.28;;;23.90;;
22780;SDS011;11557;50.884;4.322;2022-11-15T02:57:16;33.17;;;24.45;;
22780;SDS011;11557;50.884;4.322;2022-11-15T03:08:00;32.50;;;22.42;;
22780;SDS011;11557;50.884;4.322;2022-11-15T03:16:05;28.52;;;20.30;;
22780;SDS011;11557;50.884;4.322;2022-11-15T03:18:40;26.73;;;18.52;;
22780;SDS011;11557;50.884;4.322;2022-11-15T03:21:08;27.10;;;19.33;;
22780;SDS011;11557;50.884;4.322;2022-11-15T03:23:37;26.20;;;19.63;;
22780;SDS011;11557;50.884;4.322;2022-11-15T03:26:05;25.50;;;16.52;;
22780;SDS011;11557;50.884;4.322;2022-11-15T03:28:42;26.15;;;16.23;;
22780;SDS011;11557;50.884;4.322;2022-11-15T03:31:16;23.90;;;15.20;;
22780;SDS011;11557;50.884;4.322;2022-11-15T03:34:05;24.23;;;16.67;;
22780;SDS011;11557;50.884;4.322;2022-11-15T03:36:35;21.92;;;15.13;;
22780;SDS011;11557;50.884;4.322;2022-11-15T03:39:05;20.77;;;14.45;;
22780;SDS011;11557;50.884;4.322;2022-11-15T03:42:08;22.75;;;13.32;;
22780;SDS011;11557;50.884;4.322;2022-11-15T03:45:12;21.65;;;12.45;;
22780;SDS011;11557;50.884;4.322;2022-11-15T03:47:54;21.05;;;13.00;;
22780;SDS011;11557;50.884;4.322;2022-11-15T03:50:26;21.00;;;12.23;;
22780;SDS011;11557;50.884;4.322;2022-11-15T03:52:53;18.38;;;12.07;;
22780;SDS011;11557;50.884;4.322;2022-11-15T03:55:20;19.90;;;12.85;;
22780;SDS011;11557;50.884;4.322;2022-11-15T03:57:47;17.83;;;12.88;;
22780;SDS011;11557;50.884;4.322;2022-11-15T04:00:16;17.85;;;11.43;;
22780;SDS011;11557;50.884;4.322;2022-11-15T04:02:41;18.45;;;12.77;;
22780;SDS011;11557;50.884;4.322;2022-11-15T04:05:07;17.08;;;11.90;;
22780;SDS011;11557;50.884;4.322;2022-11-15T04:07:33;19.05;;;11.45;;
22780;SDS011;11557;50.884;4.322;2022-11-15T04:09:59;16.02;;;11.32;;
22780;SDS011;11557;50.884;4.322;2022-11-15T04:12:27;16.17;;;11.10;;
22780;SDS011;11557;50.884;4.322;2022-11-15T04:14:56;17.75;;;11.23;;
22780;SDS011;11557;50.884;4.322;2022-11-15T04:17:32;14.50;;;11.05;;
22780;SDS011;11557;50.884;4.322;2022-11-15T04:20:08;13.63;;;10.73;;
22780;SDS011;11557;50.884;4.322;2022-11-15T04:23:09;17.77;;;11.13;;
22780;SDS011;11557;50.884;4.322;2022-11-15T04:25:55;13.25;;;10.23;;
22780;SDS011;11557;50.884;4.322;2022-11-15T04:28:23;15.48;;;10.63;;
22780;SDS011;11557;50.884;4.322;2022-11-15T04:30:48;16.40;;;10.65;;
22780;SDS011;11557;50.884;4.322;2022-11-15T04:33:14;19.05;;;10.00;;
22780;SDS011;11557;50.884;4.322;2022-11-15T04:35:40;22.15;;;10.85;;
22780;SDS011;11557;50.884;4.322;2022-11-15T04:38:07;16.85;;;10.35;;
22780;SDS011;11557;50.884;4.322;2022-11-15T04:40:34;16.95;;;10.65;;
22780;SDS011;11557;50.884;4.322;2022-11-15T04:43:00;13.02;;;9.15;;
22780;SDS011;11557;50.884;4.322;2022-11-15T04:45:26;17.60;;;9.52;;
22780;SDS011;11557;50.884;4.322;2022-11-15T04:47:53;15.20;;;8.90;;
22780;SDS011;11557;50.884;4.322;2022-11-15T04:50:19;19.27;;;11.43;;
22780;SDS011;11557;50.884;4.322;2022-11-15T04:52:53;15.18;;;10.30;;
22780;SDS011;11557;50.884;4.322;2022-11-15T04:55:19;18.40;;;8.65;;
22780;SDS011;11557;50.884;4.322;2022-11-15T04:57:45;13.75;;;8.35;;
22780;SDS011;11557;50.884;4.322;2022-11-15T05:00:12;15.60;;;7.30;;
22780;SDS011;11557;50.884;4.322;2022-11-15T05:02:39;17.98;;;7.97;;
22780;SDS011;11557;50.884;4.322;2022-11-15T05:05:24;16.48;;;7.72;;
22780;SDS011;11557;50.884;4.322;2022-11-15T05:07:50;13.05;;;7.70;;
22780;SDS011;11557;50.884;4.322;2022-11-15T05:10:16;10.10;;;7.40;;
22780;SDS011;11557;50.884;4.322;2022-11-15T05:12:41;12.65;;;7.80;;
22780;SDS011;11557;50.884;4.322;2022-11-15T05:15:07;17.27;;;8.13;;
22780;SDS011;11557;50.884;4.322;2022-11-15T05:17:33;10.23;;;6.72;;
22780;SDS011;11557;50.884;4.322;2022-11-15T05:19:59;9.43;;;6.65;;
22780;SDS011;11557;50.884;4.322;2022-11-15T05:22:25;10.93;;;7.57;;
22780;SDS011;11557;50.884;4.322;2022-11-15T05:24:51;15.75;;;10.73;;
22780;SDS011;11557;50.884;4.322;2022-11-15T05:27:17;15.20;;;8.88;;
22780;SDS011;11557;50.884;4.322;2022-11-15T05:29:43;14.40;;;7.90;;
22780;SDS011;11557;50.884;4.322;2022-11-15T05:32:08;14.30;;;7.53;;
22780;SDS011;11557;50.884;4.322;2022-11-15T05:34:35;15.07;;;8.13;;
22780;SDS011;11557;50.884;4.322;2022-11-15T05:37:00;15.88;;;7.50;;
22780;SDS011;11557;50.884;4.322;2022-11-15T05:39:26;12.82;;;7.88;;
22780;SDS011;11557;50.884;4.322;2022-11-15T05:41:56;15.70;;;7.78;;
22780;SDS011;11557;50.884;4.322;2022-11-15T05:44:44;11.52;;;7.15;;
22780;SDS011;11557;50.884;4.322;2022-11-15T05:47:13;17.00;;;8.10;;
22780;SDS011;11557;50.884;4.322;2022-11-15T05:49:44;15.88;;;7.80;;
22780;SDS011;11557;50.884;4.322;2022-11-15T05:52:11;13.35;;;8.07;;
22780;SDS011;11557;50.884;4.322;2022-11-15T05:54:40;13.70;;;6.72;;
22780;SDS011;11557;50.884;4.322;2022-11-15T05:57:06;15.32;;;7.28;;
22780;SDS011;11557;50.884;4.322;2022-11-15T05:59:32;14.82;;;7.22;;
22780;SDS011;11557;50.884;4.322;2022-11-15T06:01:59;14.27;;;7.18;;
22780;SDS011;11557;50.884;4.322;2022-11-15T06:04:25;13.65;;;6.90;;
22780;SDS011;11557;50.884;4.322;2022-11-15T06:06:51;14.15;;;7.13;;
22780;SDS011;11557;50.884;4.322;2022-11-15T06:09:16;14.15;;;7.13;;
22780;SDS011;11557;50.884;4.322;2022-11-15T06:11:42;14.32;;;7.43;;
22780;SDS011;11557;50.884;4.322;2022-11-15T06:14:08;13.10;;;6.38;;
22780;SDS011;11557;50.884;4.322;2022-11-15T06:16:34;20.75;;;8.23;;
22780;SDS011;11557;50.884;4.322;2022-11-15T06:19:00;13.80;;;8.50;;
22780;SDS011;11557;50.884;4.322;2022-11-15T06:21:26;17.70;;;7.60;;
22780;SDS011;11557;50.884;4.322;2022-11-15T06:23:53;13.18;;;7.18;;
22780;SDS011;11557;50.884;4.322;2022-11-15T06:26:19;12.30;;;7.00;;
22780;SDS011;11557;50.884;4.322;2022-11-15T06:28:45;11.52;;;6.65;;
22780;SDS011;11557;50.884;4.322;2022-11-15T06:31:10;17.17;;;6.90;;
22780;SDS011;11557;50.884;4.322;2022-11-15T06:33:39;9.00;;;7.00;;
22780;SDS011;11557;50.884;4.322;2022-11-15T06:36:07;14.40;;;6.97;;
22780;SDS011;11557;50.884;4.322;2022-11-15T06:38:34;11.70;;;6.80;;
22780;SDS011;11557;50.884;4.322;2022-11-15T06:41:01;17.48;;;6.93;;
22780;SDS011;11557;50.884;4.322;2022-11-15T06:43:30;19.42;;;7.20;;
22780;SDS011;11557;50.884;4.322;2022-11-15T06:45:57;14.27;;;7.10;;
22780;SDS011;11557;50.884;4.322;2022-11-15T06:48:24;18.05;;;7.53;;
22780;SDS011;11557;50.884;4.322;2022-11-15T06:50:51;14.27;;;7.78;;
22780;SDS011;11557;50.884;4.322;2022-11-15T06:53:20;16.05;;;7.50;;
22780;SDS011;11557;50.884;4.322;2022-11-15T06:55:46;13.35;;;7.22;;
22780;SDS011;11557;50.884;4.322;2022-11-15T06:58:12;15.75;;;7.22;;
22780;SDS011;11557;50.884;4.322;2022-11-15T07:00:38;16.42;;;7.57;;
22780;SDS011;11557;50.884;4.322;2022-11-15T07:03:06;16.52;;;6.97;;
22780;SDS011;11557;50.884;4.322;2022-11-15T07:05:32;13.52;;;8.18;;
22780;SDS011;11557;50.884;4.322;2022-11-15T07:07:58;16.88;;;8.00;;
22780;SDS011;11557;50.884;4.322;2022-11-15T07:10:24;14.63;;;7.53;;
22780;SDS011;11557;50.884;4.322;2022-11-15T07:12:51;13.40;;;7.85;;
22780;SDS011;11557;50.884;4.322;2022-11-15T07:15:18;13.35;;;7.40;;
22780;SDS011;11557;50.884;4.322;2022-11-15T07:17:45;14.45;;;7.32;;
22780;SDS011;11557;50.884;4.322;2022-11-15T07:20:11;11.73;;;7.63;;
22780;SDS011;11557;50.884;4.322;2022-11-15T07:22:39;13.32;;;7.22;;
22780;SDS011;11557;50.884;4.322;2022-11-15T07:25:06;13.60;;;6.75;;
22780;SDS011;11557;50.884;4.322;2022-11-15T07:27:31;13.10;;;6.65;;
22780;SDS011;11557;50.884;4.322;2022-11-15T07:29:57;13.45;;;6.68;;
22780;SDS011;11557;50.884;4.322;2022-11-15T07:32:23;10.55;;;5.93;;
22780;SDS011;11557;50.884;4.322;2022-11-15T07:34:49;16.02;;;6.70;;
22780;SDS011;11557;50.884;4.322;2022-11-15T07:37:15;14.40;;;6.18;;
22780;SDS011;11557;50.884;4.322;2022-11-15T07:39:41;11.45;;;5.93;;
22780;SDS011;11557;50.884;4.322;2022-11-15T07:42:07;9.95;;;5.88;;
22780;SDS011;11557;50.884;4.322;2022-11-15T07:44:52;12.57;;;5.60;;
22780;SDS011;11557;50.884;4.322;2022-11-15T07:47:17;12.55;;;5.68;;
22780;SDS011;11557;50.884;4.322;2022-11-15T07:49:44;9.68;;;5.03;;
22780;SDS011;11557;50.884;4.322;2022-11-15T07:52:11;14.15;;;5.93;;
22780;SDS011;11557;50.884;4.322;2022-11-15T07:54:37;12.50;;;5.20;;
22780;SDS011;11557;50.884;4.322;2022-11-15T07:57:03;9.85;;;5.50;;
22780;SDS011;11557;50.884;4.322;2022-11-15T07:59:28;7.60;;;5.38;;
22780;SDS011;11557;50.884;4.322;2022-11-15T08:01:54;8.98;;;5.03;;
22780;SDS011;11557;50.884;4.322;2022-11-15T08:04:21;10.93;;;5.40;;
22780;SDS011;11557;50.884;4.322;2022-11-15T08:06:47;13.45;;;5.03;;
22780;SDS011;11557;50.884;4.322;2022-11-15T08:09:12;11.52;;;5.22;;
22780;SDS011;11557;50.884;4.322;2022-11-15T08:11:38;9.60;;;4.80;;
22780;SDS011;11557;50.884;4.322;2022-11-15T08:14:03;12.32;;;5.13;;
22780;SDS011;11557;50.884;4.322;2022-11-15T08:16:29;8.32;;;4.38;;
22780;SDS011;11557;50.884;4.322;2022-11-15T08:18:55;12.25;;;4.15;;
22780;SDS011;11557;50.884;4.322;2022-11-15T08:21:21;16.52;;;4.20;;
22780;SDS011;11557;50.884;4.322;2022-11-15T08:23:46;12.43;;;3.97;;
22780;SDS011;11557;50.884;4.322;2022-11-15T08:26:12;11.38;;;4.32;;
22780;SDS011;11557;50.884;4.322;2022-11-15T08:28:38;7.43;;;3.50;;
22780;SDS011;11557;50.884;4.322;2022-11-15T08:31:03;9.65;;;3.70;;
22780;SDS011;11557;50.884;4.322;2022-11-15T08:33:30;7.18;;;4.00;;
22780;SDS011;11557;50.884;4.322;2022-11-15T08:35:57;7.22;;;3.67;;
22780;SDS011;11557;50.884;4.322;2022-11-15T08:38:24;6.60;;;3.45;;
22780;SDS011;11557;50.884;4.322;2022-11-15T08:40:53;7.63;;;3.60;;
22780;SDS011;11557;50.884;4.322;2022-11-15T08:43:24;9.75;;;3.60;;
22780;SDS011;11557;50.884;4.322;2022-11-15T08:45:50;6.13;;;3.05;;
22780;SDS011;11557;50.884;4.322;2022-11-15T08:48:16;7.47;;;2.75;;
22780;SDS011;11557;50.884;4.322;2022-11-15T08:50:43;7.43;;;3.25;;
22780;SDS011;11557;50.884;4.322;2022-11-15T08:53:09;11.27;;;2.60;;
22780;SDS011;11557;50.884;4.322;2022-11-15T08:55:36;7.32;;;2.70;;
22780;SDS011;11557;50.884;4.322;2022-11-15T08:58:03;6.22;;;2.75;;
22780;SDS011;11557;50.884;4.322;2022-11-15T09:00:30;8.45;;;2.67;;
22780;SDS011;11557;50.884;4.322;2022-11-15T09:02:56;13.75;;;2.70;;
22780;SDS011;11557;50.884;4.322;2022-11-15T09:05:22;8.40;;;2.55;;
22780;SDS011;11557;50.884;4.322;2022-11-15T09:07:52;11.77;;;2.58;;
22780;SDS011;11557;50.884;4.322;2022-11-15T09:10:18;13.30;;;2.47;;
22780;SDS011;11557;50.884;4.322;2022-11-15T09:12:43;6.95;;;2.13;;
22780;SDS011;11557;50.884;4.322;2022-11-15T09:15:09;10.60;;;2.55;;
22780;SDS011;11557;50.884;4.322;2022-11-15T09:17:35;8.02;;;2.70;;
22780;SDS011;11557;50.884;4.322;2022-11-15T09:20:00;12.95;;;3.05;;
22780;SDS011;11557;50.884;4.322;2022-11-15T09:22:26;8.00;;;2.85;;
22780;SDS011;11557;50.884;4.322;2022-11-15T09:24:51;10.07;;;2.88;;
22780;SDS011;11557;50.884;4.322;2022-11-15T09:27:17;9.77;;;2.95;;
22780;SDS011;11557;50.884;4.322;2022-11-15T09:29:42;9.57;;;2.58;;
22780;SDS011;11557;50.884;4.322;2022-11-15T09:32:08;7.03;;;2.60;;
22780;SDS011;11557;50.884;4.322;2022-11-15T09:34:34;11.02;;;2.50;;
22780;SDS011;11557;50.884;4.322;2022-11-15T09:37:00;8.85;;;2.38;;
22780;SDS011;11557;50.884;4.322;2022-11-15T09:39:25;11.73;;;2.65;;
22780;SDS011;11557;50.884;4.322;2022-11-15T09:47:29;8.45;;;2.15;;
22780;SDS011;11557;50.884;4.322;2022-11-15T09:50:07;9.20;;;1.70;;
22780;SDS011;11557;50.884;4.322;2022-11-15T09:52:35;8.85;;;2.00;;
22780;SDS011;11557;50.884;4.322;2022-11-15T09:55:03;6.70;;;2.03;;
22780;SDS011;11557;50.884;4.322;2022-11-15T09:57:31;8.57;;;1.90;;
22780;SDS011;11557;50.884;4.322;2022-11-15T10:00:17;11.10;;;2.30;;
22780;SDS011;11557;50.884;4.322;2022-11-15T10:05:23;5.80;;;1.70;;
22780;SDS011;11557;50.884;4.322;2022-11-15T10:13:07;9.32;;;1.75;;
22780;SDS011;11557;50.884;4.322;2022-11-15T10:15:44;8.68;;;1.73;;
22780;SDS011;11557;50.884;4.322;2022-11-15T10:18:23;9.50;;;2.35;;
22780;SDS011;11557;50.884;4.322;2022-11-15T10:21:32;10.82;;;2.20;;
22780;SDS011;11557;50.884;4.322;2022-11-15T10:24:11;6.38;;;1.67;;
22780;SDS011;11557;50.884;4.322;2022-11-15T10:26:38;8.68;;;2.00;;
22780;SDS011;11557;50.884;4.322;2022-11-15T10:29:10;9.05;;;1.83;;
22780;SDS011;11557;50.884;4.322;2022-11-15T10:31:37;7.32;;;1.50;;
22780;SDS011;11557;50.884;4.322;2022-11-15T10:34:11;6.75;;;2.05;;
22780;SDS011;11557;50.884;4.322;2022-11-15T10:36:58;9.05;;;2.03;;
22780;SDS011;11557;50.884;4.322;2022-11-15T10:39:27;9.48;;;1.80;;
22780;SDS011;11557;50.884;4.322;2022-11-15T10:41:53;4.70;;;1.83;;
22780;SDS011;11557;50.884;4.322;2022-11-15T10:44:20;12.43;;;2.58;;
22780;SDS011;11557;50.884;4.322;2022-11-15T10:46:50;11.27;;;1.90;;
22780;SDS011;11557;50.884;4.322;2022-11-15T10:49:31;9.57;;;2.00;;
22780;SDS011;11557;50.884;4.322;2022-11-15T10:51:59;7.10;;;1.50;;
22780;SDS011;11557;50.884;4.322;2022-11-15T10:54:51;13.65;;;2.55;;
22780;SDS011;11557;50.884;4.322;2022-11-15T10:57:25;7.18;;;1.90;;
22780;SDS011;11557;50.884;4.322;2022-11-15T11:00:07;12.18;;;1.88;;
22780;SDS011;11557;50.884;4.322;2022-11-15T11:02:47;12.88;;;2.17;;
22780;SDS011;11557;50.884;4.322;2022-11-15T11:05:26;12.73;;;2.35;;
22780;SDS011;11557;50.884;4.322;2022-11-15T11:08:02;7.43;;;1.90;;
22780;SDS011;11557;50.884;4.322;2022-11-15T11:10:51;8.13;;;2.40;;
22780;SDS011;11557;50.884;4.322;2022-11-15T11:13:31;12.93;;;1.92;;
22780;SDS011;11557;50.884;4.322;2022-11-15T11:16:00;10.73;;;2.15;;
22780;SDS011;11557;50.884;4.322;2022-11-15T11:24:30;9.75;;;1.95;;
22780;SDS011;11557;50.884;4.322;2022-11-15T11:30:08;9.82;;;2.08;;
22780;SDS011;11557;50.884;4.322;2022-11-15T11:35:34;7.20;;;1.63;;
22780;SDS011;11557;50.884;4.322;2022-11-15T11:48:56;8.65;;;2.30;;
22780;SDS011;11557;50.884;4.322;2022-11-15T11:51:49;8.48;;;1.55;;
22780;SDS011;11557;50.884;4.322;2022-11-15T11:54:25;7.53;;;1.75;;
22780;SDS011;11557;50.884;4.322;2022-11-15T11:57:06;8.02;;;1.52;;
22780;SDS011;11557;50.884;4.322;2022-11-15T11:59:49;8.40;;;1.92;;
22780;SDS011;11557;50.884;4.322;2022-11-15T12:02:25;6.88;;;1.58;;
22780;SDS011;11557;50.884;4.322;2022-11-15T12:05:15;7.38;;;1.55;;
22780;SDS011;11557;50.884;4.322;2022-11-15T12:07:46;7.93;;;1.60;;
22780;SDS011;11557;50.884;4.322;2022-11-15T12:18:21;5.60;;;1.60;;
22780;SDS011;11557;50.884;4.322;2022-11-15T12:23:43;8.88;;;1.95;;
22780;SDS011;11557;50.884;4.322;2022-11-15T12:26:17;9.00;;;2.10;;
22780;SDS011;11557;50.884;4.322;2022-11-15T12:33:49;5.90;;;2.00;;
22780;SDS011;11557;50.884;4.322;2022-11-15T12:38:52;5.63;;;2.53;;
22780;SDS011;11557;50.884;4.322;2022-11-15T12:41:27;12.27;;;3.30;;
22780;SDS011;11557;50.884;4.322;2022-11-15T12:43:57;9.30;;;3.15;;
22780;SDS011;11557;50.884;4.322;2022-11-15T13:02:38;7.72;;;2.15;;
22780;SDS011;11557;50.884;4.322;2022-11-15T13:17:43;5.55;;;1.80;;
22780;SDS011;11557;50.884;4.322;2022-11-15T13:22:45;5.93;;;2.00;;
22780;SDS011;11557;50.884;4.322;2022-11-15T13:27:55;4.32;;;2.00;;
22780;SDS011;11557;50.884;4.322;2022-11-15T13:30:23;9.75;;;1.80;;
22780;SDS011;11557;50.884;4.322;2022-11-15T13:32:51;6.45;;;1.80;;
22780;SDS011;11557;50.884;4.322;2022-11-15T13:35:24;6.72;;;1.80;;
22780;SDS011;11557;50.884;4.322;2022-11-15T13:42:46;5.70;;;1.63;;
22780;SDS011;11557;50.884;4.322;2022-11-15T13:45:15;3.67;;;1.40;;
22780;SDS011;11557;50.884;4.322;2022-11-15T13:47:43;5.47;;;1.55;;
22780;SDS011;11557;50.884;4.322;2022-11-15T13:50:12;4.90;;;1.80;;
22780;SDS011;11557;50.884;4.322;2022-11-15T13:52:38;6.90;;;3.00;;
22780;SDS011;11557;50.884;4.322;2022-11-15T13:55:15;9.48;;;1.50;;
22780;SDS011;11557;50.884;4.322;2022-11-15T13:57:45;2.55;;;1.60;;
22780;SDS011;11557;50.884;4.322;2022-11-15T14:00:41;8.80;;;3.80;;
22780;SDS011;11557;50.884;4.322;2022-11-15T14:03:22;7.70;;;4.72;;
22780;SDS011;11557;50.884;4.322;2022-11-15T14:06:26;7.15;;;3.72;;
22780;SDS011;11557;50.884;4.322;2022-11-15T14:11:37;5.32;;;1.90;;
22780;SDS011;11557;50.884;4.322;2022-11-15T14:14:24;3.15;;;1.67;;
22780;SDS011;11557;50.884;4.322;2022-11-15T14:16:55;7.18;;;2.08;;
22780;SDS011;11557;50.884;4.322;2022-11-15T14:24:41;5.22;;;2.03;;
22780;SDS011;11557;50.884;4.322;2022-11-15T14:30:01;4.88;;;2.10;;
22780;SDS011;11557;50.884;4.322;2022-11-15T14:32:28;4.53;;;1.98;;
22780;SDS011;11557;50.884;4.322;2022-11-15T14:35:02;9.32;;;2.63;;
22780;SDS011;11557;50.884;4.322;2022-11-15T14:37:32;7.15;;;2.60;;
22780;SDS011;11557;50.884;4.322;2022-11-15T14:40:03;4.30;;;1.80;;
22780;SDS011;11557;50.884;4.322;2022-11-15T14:42:30;4.57;;;1.88;;
22780;SDS011;11557;50.884;4.322;2022-11-15T14:44:56;4.72;;;2.33;;
22780;SDS011;11557;50.884;4.322;2022-11-15T14:47:21;5.65;;;2.47;;
22780;SDS011;11557;50.884;4.322;2022-11-15T14:49:47;6.60;;;3.00;;
22780;SDS011;11557;50.884;4.322;2022-11-15T14:52:19;5.55;;;2.30;;
22780;SDS011;11557;50.884;4.322;2022-11-15T14:54:55;5.00;;;2.60;;
22780;SDS011;11557;50.884;4.322;2022-11-15T14:57:23;6.28;;;2.50;;
22780;SDS011;11557;50.884;4.322;2022-11-15T14:59:48;3.63;;;2.50;;
22780;SDS011;11557;50.884;4.322;2022-11-15T15:02:16;6.10;;;2.63;;
22780;SDS011;11557;50.884;4.322;2022-11-15T15:04:46;5.28;;;2.47;;
22780;SDS011;11557;50.884;4.322;2022-11-15T15:07:12;4.70;;;2.38;;
22780;SDS011;11557;50.884;4.322;2022-11-15T15:09:39;7.63;;;2.63;;
22780;SDS011;11557;50.884;4.322;2022-11-15T15:12:08;5.88;;;3.17;;
22780;SDS011;11557;50.884;4.322;2022-11-15T15:14:45;7.85;;;2.97;;
22780;SDS011;11557;50.884;4.322;2022-11-15T15:17:12;4.57;;;2.53;;
22780;SDS011;11557;50.884;4.322;2022-11-15T15:19:38;4.00;;;2.67;;
22780;SDS011;11557;50.884;4.322;2022-11-15T15:22:04;4.57;;;2.60;;
22780;SDS011;11557;50.884;4.322;2022-11-15T15:24:30;8.25;;;2.90;;
22780;SDS011;11557;50.884;4.322;2022-11-15T15:26:55;6.20;;;3.00;;
22780;SDS011;11557;50.884;4.322;2022-11-15T15:29:21;4.88;;;2.85;;
22780;SDS011;11557;50.884;4.322;2022-11-15T15:31:47;6.25;;;3.20;;
22780;SDS011;11557;50.884;4.322;2022-11-15T15:34:12;4.93;;;3.03;;
22780;SDS011;11557;50.884;4.322;2022-11-15T15:36:38;6.40;;;3.17;;
22780;SDS011;11557;50.884;4.322;2022-11-15T15:39:04;5.13;;;3.03;;
22780;SDS011;11557;50.884;4.322;2022-11-15T15:41:29;8.05;;;3.70;;
22780;SDS011;11557;50.884;4.322;2022-11-15T15:43:55;5.15;;;3.38;;
22780;SDS011;11557;50.884;4.322;2022-11-15T15:46:21;12.38;;;5.85;;
22780;SDS011;11557;50.884;4.322;2022-11-15T15:48:46;8.95;;;4.40;;
22780;SDS011;11557;50.884;4.322;2022-11-15T15:51:12;7.53;;;4.22;;
22780;SDS011;11557;50.884;4.322;2022-11-15T15:53:38;8.38;;;4.70;;
22780;SDS011;11557;50.884;4.322;2022-11-15T15:56:04;7.40;;;4.57;;
22780;SDS011;11557;50.884;4.322;2022-11-15T15:58:33;8.05;;;4.40;;
22780;SDS011;11557;50.884;4.322;2022-11-15T16:00:59;8.88;;;3.95;;
22780;SDS011;11557;50.884;4.322;2022-11-15T16:03:24;12.02;;;4.10;;
22780;SDS011;11557;50.884;4.322;2022-11-15T16:05:50;6.45;;;3.42;;
22780;SDS011;11557;50.884;4.322;2022-11-15T16:08:19;6.47;;;3.42;;
22780;SDS011;11557;50.884;4.322;2022-11-15T16:10:46;7.78;;;3.78;;
22780;SDS011;11557;50.884;4.322;2022-11-15T16:13:12;8.63;;;4.03;;
22780;SDS011;11557;50.884;4.322;2022-11-15T16:15:38;8.20;;;4.10;;
22780;SDS011;11557;50.884;4.322;2022-11-15T16:18:04;5.22;;;4.18;;
22780;SDS011;11557;50.884;4.322;2022-11-15T16:20:40;6.13;;;3.85;;
22780;SDS011;11557;50.884;4.322;2022-11-15T16:23:11;6.60;;;4.00;;
22780;SDS011;11557;50.884;4.322;2022-11-15T16:25:45;6.18;;;4.07;;
22780;SDS011;11557;50.884;4.322;2022-11-15T16:28:22;5.40;;;4.18;;
22780;SDS011;11557;50.884;4.322;2022-11-15T16:30:58;5.53;;;4.25;;
22780;SDS011;11557;50.884;4.322;2022-11-15T16:33:34;7.15;;;4.85;;
22780;SDS011;11557;50.884;4.322;2022-11-15T16:36:00;6.10;;;4.20;;
22780;SDS011;11557;50.884;4.322;2022-11-15T16:38:26;6.78;;;4.25;;
22780;SDS011;11557;50.884;4.322;2022-11-15T16:40:52;6.00;;;4.20;;
22780;SDS011;11557;50.884;4.322;2022-11-15T16:43:18;6.70;;;4.97;;
22780;SDS011;11557;50.884;4.322;2022-11-15T16:45:43;7.13;;;4.43;;
22780;SDS011;11557;50.884;4.322;2022-11-15T16:48:18;4.85;;;3.50;;
22780;SDS011;11557;50.884;4.322;2022-11-15T16:50:49;6.47;;;4.13;;
22780;SDS011;11557;50.884;4.322;2022-11-15T16:53:15;6.22;;;4.47;;
22780;SDS011;11557;50.884;4.322;2022-11-15T16:55:40;5.20;;;4.15;;
22780;SDS011;11557;50.884;4.322;2022-11-15T16:58:07;5.28;;;4.55;;
22780;SDS011;11557;50.884;4.322;2022-11-15T17:00:34;5.15;;;4.40;;
22780;SDS011;11557;50.884;4.322;2022-11-15T17:02:59;5.32;;;4.65;;
22780;SDS011;11557;50.884;4.322;2022-11-15T17:05:26;5.90;;;4.65;;